createdAt,value
2019-05-10T00:00:44.522Z,8.48
2019-05-10T00:03:31.547Z,9.40
2019-05-10T00:06:18.519Z,9.33
2019-05-10T00:08:47.163Z,10.10
2019-05-10T00:11:29.407Z,9.05
2019-05-10T00:14:16.460Z,9.15
2019-05-10T00:16:47.461Z,10.00
2019-05-10T00:19:17.315Z,9.33
2019-05-10T00:21:46.862Z,9.80
2019-05-10T00:24:16.501Z,10.85
2019-05-10T00:26:46.006Z,9.50
2019-05-10T00:29:15.560Z,9.90
2019-05-10T00:31:45.123Z,9.38
2019-05-10T00:34:14.911Z,10.20
2019-05-10T00:36:47.247Z,9.35
2019-05-10T00:39:19.517Z,10.40
2019-05-10T00:41:49.019Z,10.93
2019-05-10T00:44:20.365Z,9.63
2019-05-10T00:46:51.324Z,10.00
2019-05-10T00:49:21.213Z,11.10
2019-05-10T00:51:56.123Z,11.40
2019-05-10T00:54:25.779Z,11.22
2019-05-10T00:59:52.333Z,8.73
2019-05-10T01:02:22.084Z,9.18
2019-05-10T01:04:52.498Z,7.30
2019-05-10T01:07:22.229Z,7.92
2019-05-10T01:09:51.752Z,7.17
2019-05-10T01:12:21.492Z,7.75
2019-05-10T01:14:51.183Z,7.65
2019-05-10T01:17:20.703Z,6.12
2019-05-10T01:19:50.435Z,7.35
2019-05-10T01:22:20.147Z,7.00
2019-05-10T01:24:49.800Z,7.75
2019-05-10T01:27:19.390Z,9.68
2019-05-10T01:29:49.034Z,9.18
2019-05-10T01:32:18.544Z,9.78
2019-05-10T01:34:48.130Z,8.53
2019-05-10T01:37:17.713Z,6.83
2019-05-10T01:39:47.267Z,5.58
2019-05-10T01:42:16.795Z,6.80
2019-05-10T01:44:46.334Z,7.47
2019-05-10T01:47:15.856Z,8.13
2019-05-10T01:49:45.444Z,7.62
2019-05-10T01:52:15.534Z,8.00
2019-05-10T01:54:45.085Z,9.75
2019-05-10T01:57:14.706Z,7.75
2019-05-10T01:59:44.541Z,7.80
2019-05-10T02:02:14.441Z,8.08
2019-05-10T02:04:44.105Z,8.35
2019-05-10T02:07:13.991Z,8.13
2019-05-10T02:09:43.610Z,7.22
2019-05-10T02:12:13.209Z,7.62
2019-05-10T02:14:43.067Z,7.90
2019-05-10T02:17:12.679Z,7.62
2019-05-10T02:19:42.266Z,7.72
2019-05-10T02:22:11.814Z,9.38
2019-05-10T02:24:41.317Z,7.87
2019-05-10T02:27:11.025Z,7.35
2019-05-10T02:29:40.558Z,7.80
2019-05-10T02:32:10.118Z,7.20
2019-05-10T02:34:39.632Z,7.80
2019-05-10T02:37:09.282Z,8.10
2019-05-10T02:39:40.880Z,9.48
2019-05-10T02:42:10.104Z,9.45
2019-05-10T02:44:39.636Z,9.98
2019-05-10T02:47:09.218Z,9.10
2019-05-10T02:49:39.267Z,9.93
2019-05-10T02:52:08.839Z,10.50
2019-05-10T02:54:38.436Z,11.60
2019-05-10T02:57:09.013Z,11.85
2019-05-10T02:59:38.929Z,12.23
2019-05-10T03:02:08.405Z,10.50
2019-05-10T03:04:38.824Z,10.10
2019-05-10T03:07:08.847Z,11.95
2019-05-10T03:09:38.687Z,11.00
2019-05-10T03:12:27.178Z,11.43
2019-05-10T03:14:59.262Z,9.25
2019-05-10T03:17:29.730Z,10.50
2019-05-10T03:20:01.968Z,11.70
2019-05-10T03:22:35.132Z,11.33
2019-05-10T03:25:06.102Z,11.28
2019-05-10T03:27:37.008Z,10.40
2019-05-10T03:30:06.923Z,11.95
2019-05-10T03:32:39.659Z,10.50
2019-05-10T03:35:10.702Z,9.75
2019-05-10T03:37:40.930Z,10.63
2019-05-10T03:40:10.793Z,9.90
2019-05-10T03:42:41.210Z,11.35
2019-05-10T03:45:11.410Z,11.28
2019-05-10T03:47:43.017Z,10.55
2019-05-10T03:50:13.281Z,11.10
2019-05-10T03:52:51.701Z,8.85
2019-05-10T03:55:18.261Z,10.55
2019-05-10T03:57:48.039Z,10.40
2019-05-10T04:00:18.221Z,10.65
2019-05-10T04:02:49.526Z,10.05
2019-05-10T04:05:23.780Z,9.98
2019-05-10T04:07:54.173Z,12.07
2019-05-10T04:10:24.687Z,11.05
2019-05-10T04:12:58.968Z,9.23
2019-05-10T04:15:28.808Z,10.82
2019-05-10T04:18:23.448Z,10.55
2019-05-10T04:21:12.536Z,10.93
2019-05-10T04:24:19.048Z,9.90
2019-05-10T04:27:08.227Z,10.58
2019-05-10T04:29:57.633Z,11.00
2019-05-10T04:32:56.136Z,10.78
2019-05-10T04:36:12.400Z,11.50
2019-05-10T04:38:42.006Z,12.37
2019-05-10T04:41:33.253Z,11.25
2019-05-10T04:51:19.023Z,12.28
2019-05-10T04:53:52.161Z,13.28
2019-05-10T04:56:30.118Z,12.80
2019-05-10T05:02:24.450Z,13.70
2019-05-10T05:04:54.874Z,12.90
2019-05-10T05:07:47.802Z,12.20
2019-05-10T05:11:05.759Z,12.88
2019-05-10T05:13:36.023Z,12.15
2019-05-10T05:19:19.508Z,11.65
2019-05-10T05:21:54.919Z,12.23
2019-05-10T05:24:25.146Z,12.23
2019-05-10T05:26:57.527Z,10.68
2019-05-10T05:29:36.135Z,12.00
2019-05-10T05:32:13.474Z,11.30
2019-05-10T05:34:43.273Z,11.38
2019-05-10T05:37:18.983Z,11.83
2019-05-10T05:39:44.332Z,11.00
2019-05-10T05:42:14.217Z,11.57
2019-05-10T05:44:43.880Z,10.98
2019-05-10T05:47:13.533Z,11.00
2019-05-10T05:49:43.235Z,12.18
2019-05-10T05:52:13.305Z,12.00
2019-05-10T05:54:45.905Z,11.12
2019-05-10T05:57:15.414Z,10.68
2019-05-10T05:59:48.634Z,9.83
2019-05-10T06:02:16.143Z,10.95
2019-05-10T06:04:46.213Z,11.88
2019-05-10T06:07:17.024Z,11.83
2019-05-10T06:09:46.698Z,14.23
2019-05-10T06:12:16.231Z,10.53
2019-05-10T06:14:49.951Z,11.43
2019-05-10T06:17:17.027Z,12.00
2019-05-10T06:19:46.546Z,12.15
2019-05-10T06:22:16.285Z,10.40
2019-05-10T06:24:46.788Z,10.32
2019-05-10T06:27:16.913Z,9.68
2019-05-10T06:29:46.467Z,9.28
2019-05-10T06:32:16.007Z,10.08
2019-05-10T06:34:45.652Z,10.55
2019-05-10T06:37:15.206Z,10.53
2019-05-10T06:39:45.291Z,8.83
2019-05-10T06:42:14.775Z,10.32
2019-05-10T06:44:44.563Z,9.63
2019-05-10T06:47:14.125Z,8.78
2019-05-10T06:49:50.708Z,8.45
2019-05-10T06:52:16.500Z,8.50
2019-05-10T06:54:46.405Z,8.88
2019-05-10T06:57:17.638Z,7.75
2019-05-10T06:59:47.057Z,6.90
2019-05-10T07:02:19.949Z,7.08
2019-05-10T07:04:48.746Z,4.92
2019-05-10T07:07:33.101Z,5.37
2019-05-10T07:10:13.184Z,4.78
2019-05-10T07:12:20.763Z,5.05
2019-05-10T07:14:50.307Z,5.25
2019-05-10T07:17:19.810Z,5.00
2019-05-10T07:19:53.629Z,4.53
2019-05-10T07:22:21.895Z,3.70
2019-05-10T07:24:57.241Z,3.72
2019-05-10T07:27:23.078Z,3.47
2019-05-10T07:29:52.658Z,3.52
2019-05-10T07:32:24.445Z,3.75
2019-05-10T07:34:58.954Z,3.90
2019-05-10T07:37:24.607Z,3.47
2019-05-10T07:39:54.175Z,3.52
2019-05-10T07:42:23.795Z,3.77
2019-05-10T07:44:53.746Z,4.60
2019-05-10T07:47:24.036Z,3.65
2019-05-10T07:49:55.371Z,3.45
2019-05-10T07:52:26.745Z,3.52
2019-05-10T07:54:56.292Z,3.62
2019-05-10T07:57:27.043Z,3.45
2019-05-10T07:59:57.679Z,3.70
2019-05-10T08:02:27.891Z,2.95
2019-05-10T08:04:58.436Z,3.00
2019-05-10T08:07:29.415Z,3.55
2019-05-10T08:09:59.539Z,2.55
2019-05-10T08:12:29.130Z,2.27
2019-05-10T08:14:59.066Z,2.90
2019-05-10T08:17:29.110Z,3.35
2019-05-10T08:19:58.775Z,3.17
2019-05-10T08:22:32.765Z,3.30
2019-05-10T08:25:02.217Z,2.85
2019-05-10T08:27:32.458Z,3.05
2019-05-10T08:30:20.762Z,2.83
2019-05-10T08:32:34.919Z,3.22
2019-05-10T08:35:05.425Z,3.25
2019-05-10T08:37:37.723Z,2.67
2019-05-10T08:40:06.532Z,4.05
2019-05-10T08:42:45.214Z,2.77
2019-05-10T08:45:09.236Z,3.42
2019-05-10T08:47:38.435Z,2.65
2019-05-10T08:50:22.381Z,4.08
2019-05-10T08:52:39.348Z,2.95
2019-05-10T08:55:12.092Z,2.90
2019-05-10T08:57:44.411Z,2.50
2019-05-10T09:00:13.071Z,1.90
2019-05-10T09:02:42.921Z,2.80
2019-05-10T09:05:12.716Z,2.75
2019-05-10T09:07:43.048Z,2.83
2019-05-10T09:10:13.636Z,2.75
2019-05-10T09:12:51.096Z,2.10
2019-05-10T09:15:14.716Z,2.60
2019-05-10T09:17:44.292Z,3.12
2019-05-10T09:20:20.611Z,2.35
2019-05-10T09:22:45.848Z,2.42
2019-05-10T09:25:20.147Z,1.55
2019-05-10T09:27:47.095Z,2.08
2019-05-10T09:30:29.553Z,2.27
2019-05-10T09:33:08.343Z,2.20
2019-05-10T09:35:33.000Z,2.40
2019-05-10T09:38:02.546Z,2.30
2019-05-10T09:40:32.687Z,1.72
2019-05-10T09:43:05.166Z,2.00
2019-05-10T09:45:34.486Z,1.67
2019-05-10T09:48:04.095Z,2.40
2019-05-10T09:50:41.325Z,1.85
2019-05-10T09:53:06.733Z,2.45
2019-05-10T09:55:36.959Z,2.52
2019-05-10T09:58:08.547Z,2.20
2019-05-10T10:00:38.181Z,2.40
2019-05-10T10:03:08.427Z,2.33
2019-05-10T10:05:40.253Z,2.65
2019-05-10T10:08:10.966Z,2.85
2019-05-10T10:10:40.257Z,2.90
2019-05-10T10:13:39.475Z,2.20
2019-05-10T10:16:04.040Z,6.17
2019-05-10T10:18:31.298Z,2.70
2019-05-10T10:21:00.782Z,3.50
2019-05-10T10:23:34.789Z,3.30
2019-05-10T10:26:03.488Z,3.00
2019-05-10T10:28:36.432Z,2.33
2019-05-10T10:31:05.378Z,2.98
2019-05-10T10:33:37.771Z,2.65
2019-05-10T10:36:10.301Z,3.80
2019-05-10T10:38:45.310Z,3.30
2019-05-10T10:41:08.953Z,2.55
2019-05-10T10:43:38.543Z,3.40
2019-05-10T10:46:11.934Z,3.30
2019-05-10T10:48:43.507Z,3.80
2019-05-10T10:51:10.960Z,3.60
2019-05-10T10:53:40.448Z,4.60
2019-05-10T10:56:10.115Z,3.50
2019-05-10T10:58:39.705Z,4.80
2019-05-10T11:01:20.067Z,4.37
2019-05-10T11:03:40.963Z,3.55
2019-05-10T11:06:10.694Z,5.45
2019-05-10T11:08:41.257Z,4.08
2019-05-10T11:11:10.903Z,4.35
2019-05-10T11:13:44.862Z,3.90
2019-05-10T11:16:15.793Z,3.80
2019-05-10T11:18:42.960Z,3.80
2019-05-10T11:21:13.809Z,4.30
2019-05-10T11:23:43.468Z,4.53
2019-05-10T11:26:13.152Z,4.87
2019-05-10T11:28:44.052Z,3.80
2019-05-10T11:31:14.173Z,3.20
2019-05-10T11:33:47.237Z,3.07
2019-05-10T11:36:14.915Z,3.53
2019-05-10T11:38:47.175Z,3.67
2019-05-10T11:41:21.246Z,2.50
2019-05-10T11:43:47.028Z,3.80
2019-05-10T11:46:16.860Z,3.00
2019-05-10T11:48:46.320Z,2.22
2019-05-10T11:56:23.669Z,2.12
2019-05-10T11:58:54.896Z,2.98
2019-05-10T11:59:04.703Z,5.20
2019-05-10T11:59:05.051Z,2.10
2019-05-10T12:01:22.254Z,2.77
2019-05-10T12:03:52.203Z,2.70
2019-05-10T12:06:21.865Z,3.10
2019-05-10T12:08:56.871Z,3.92
2019-05-10T12:11:33.001Z,2.72
2019-05-10T12:14:23.220Z,3.50
2019-05-10T12:17:47.680Z,2.50
2019-05-10T12:21:09.639Z,2.50
2019-05-10T12:23:50.202Z,2.20
2019-05-10T12:27:12.979Z,3.07
2019-05-10T12:29:17.187Z,2.80
2019-05-10T12:32:07.440Z,6.20
2019-05-10T12:34:37.157Z,2.60
2019-05-10T12:37:14.003Z,2.60
2019-05-10T12:39:45.630Z,3.13
2019-05-10T12:42:17.938Z,2.73
2019-05-10T12:44:57.637Z,3.50
2019-05-10T12:47:52.078Z,2.73
2019-05-10T12:50:44.036Z,3.33
2019-05-10T12:53:15.477Z,2.93
2019-05-10T12:55:52.868Z,2.80
2019-05-10T12:58:23.154Z,3.00
2019-05-10T13:00:54.290Z,2.97
2019-05-10T13:03:54.223Z,3.40
2019-05-10T13:06:24.604Z,3.10
2019-05-10T13:08:58.302Z,3.63
2019-05-10T13:11:27.416Z,3.70
2019-05-10T13:14:01.073Z,3.00
2019-05-10T13:17:43.809Z,3.33
2019-05-10T13:21:00.211Z,3.13
2019-05-10T13:23:38.680Z,2.83
2019-05-10T13:29:08.087Z,3.33
2019-05-10T13:31:57.138Z,2.57
2019-05-10T13:34:39.403Z,3.67
2019-05-10T13:40:25.610Z,3.00
2019-05-10T13:43:17.287Z,2.50
2019-05-10T13:46:39.255Z,3.50
2019-05-10T13:49:09.662Z,2.90
2019-05-10T13:51:58.411Z,3.17
2019-05-10T13:57:58.379Z,3.40
2019-05-10T14:00:33.433Z,3.00
2019-05-10T14:03:10.909Z,2.87
2019-05-10T14:05:39.439Z,3.23
2019-05-10T14:08:07.724Z,2.77
2019-05-10T14:11:10.963Z,2.77
2019-05-10T14:13:46.512Z,2.53
2019-05-10T14:16:38.288Z,3.40
2019-05-10T14:19:37.035Z,3.10
2019-05-10T14:22:36.025Z,3.87
2019-05-10T14:25:06.151Z,5.53
2019-05-10T14:27:38.086Z,3.33
2019-05-10T14:30:13.383Z,3.50
2019-05-10T14:32:48.765Z,3.37
2019-05-10T14:35:22.592Z,3.57
2019-05-10T14:37:52.653Z,4.10
2019-05-10T14:43:51.425Z,3.33
2019-05-10T14:50:26.054Z,3.37
2019-05-10T14:52:52.909Z,3.70
2019-05-10T14:55:33.945Z,4.80
2019-05-10T14:58:20.937Z,3.00
2019-05-10T15:00:50.503Z,4.03
2019-05-10T15:03:20.034Z,3.43
2019-05-10T15:05:55.310Z,3.13
2019-05-10T15:08:20.815Z,3.40
2019-05-10T15:10:50.809Z,4.07
2019-05-10T15:13:25.946Z,3.87
2019-05-10T15:15:51.632Z,3.30
2019-05-10T15:18:21.400Z,3.70
2019-05-10T15:20:50.897Z,4.00
2019-05-10T15:23:20.451Z,4.20
2019-05-10T15:26:14.404Z,4.80
2019-05-10T15:28:46.608Z,3.33
2019-05-10T15:31:16.074Z,4.63
2019-05-10T15:33:46.572Z,3.90
2019-05-10T15:36:16.047Z,4.40
2019-05-10T15:38:57.469Z,3.97
2019-05-10T15:41:28.929Z,3.53
2019-05-10T15:43:58.634Z,3.73
2019-05-10T15:46:38.715Z,3.50
2019-05-10T15:49:13.473Z,4.20
2019-05-10T15:52:24.377Z,3.87
2019-05-10T15:54:45.056Z,3.73
2019-05-10T15:57:14.627Z,3.97
2019-05-10T15:59:41.934Z,3.33
2019-05-10T16:02:11.532Z,5.23
2019-05-10T16:04:41.099Z,4.07
2019-05-10T16:07:16.654Z,3.80
2019-05-10T16:09:49.905Z,4.47
2019-05-10T16:12:20.594Z,4.83
2019-05-10T16:14:50.206Z,4.80
2019-05-10T16:17:23.784Z,4.63
2019-05-10T16:20:00.208Z,3.33
2019-05-10T16:22:37.103Z,3.62
2019-05-10T16:25:08.261Z,3.27
2019-05-10T16:27:44.534Z,4.57
2019-05-10T16:30:11.878Z,4.08
2019-05-10T16:33:01.433Z,4.07
2019-05-10T16:35:38.685Z,4.67
2019-05-10T16:38:03.016Z,4.83
2019-05-10T16:41:05.633Z,4.00
2019-05-10T16:43:51.909Z,10.07
2019-05-10T16:46:21.264Z,4.50
2019-05-10T16:48:51.513Z,4.60
2019-05-10T16:51:59.675Z,4.53
2019-05-10T16:54:49.823Z,4.37
2019-05-10T16:57:19.506Z,3.87
2019-05-10T16:59:49.140Z,3.47
2019-05-10T17:02:18.656Z,3.60
2019-05-10T17:04:48.192Z,4.40
2019-05-10T17:07:18.812Z,4.50
2019-05-10T17:09:54.676Z,5.47
2019-05-10T17:12:27.500Z,5.37
2019-05-10T17:14:56.377Z,5.17
2019-05-10T17:17:31.371Z,6.10
2019-05-10T17:19:58.734Z,6.53
2019-05-10T17:22:28.390Z,6.10
2019-05-10T17:25:03.437Z,6.17
2019-05-10T17:27:29.215Z,5.53
2019-05-10T17:29:58.872Z,6.93
2019-05-10T17:32:28.433Z,5.53
2019-05-10T17:34:59.098Z,7.60
2019-05-10T17:37:35.148Z,6.30
2019-05-10T17:40:04.727Z,5.73
2019-05-10T17:42:35.570Z,5.37
2019-05-10T17:45:04.494Z,6.43
2019-05-10T17:47:34.185Z,5.43
2019-05-10T17:50:03.888Z,6.00
2019-05-10T17:52:33.435Z,6.17
2019-05-10T17:55:03.141Z,6.75
2019-05-10T17:57:32.867Z,6.80
2019-05-10T18:00:02.713Z,7.08
2019-05-10T18:02:32.471Z,7.20
2019-05-10T18:05:06.216Z,5.70
2019-05-10T18:07:33.456Z,7.37
2019-05-10T18:10:03.116Z,6.92
2019-05-10T18:12:32.744Z,6.30
2019-05-10T18:15:21.435Z,6.57
2019-05-10T18:17:51.040Z,7.50
2019-05-10T18:20:20.958Z,6.05
2019-05-10T18:22:50.466Z,8.50
2019-05-10T18:25:22.214Z,8.45
2019-05-10T18:27:51.307Z,11.08
2019-05-10T18:30:21.990Z,8.83
2019-05-10T18:32:51.564Z,7.75
2019-05-10T18:35:21.539Z,6.33
2019-05-10T18:37:53.563Z,6.42
2019-05-10T18:40:25.392Z,7.45
2019-05-10T18:42:57.728Z,7.90
2019-05-10T18:45:28.738Z,6.97
2019-05-10T18:47:56.675Z,7.25
2019-05-10T18:50:26.192Z,6.83
2019-05-10T18:52:55.834Z,7.53
2019-05-10T18:55:25.615Z,7.95
2019-05-10T18:57:55.156Z,6.28
2019-05-10T19:00:25.314Z,6.20
2019-05-10T19:02:57.053Z,6.85
2019-05-10T19:05:31.615Z,6.15
2019-05-10T19:08:04.328Z,6.20
2019-05-10T19:10:28.970Z,6.87
2019-05-10T19:13:01.367Z,8.10
2019-05-10T19:15:30.066Z,8.15
2019-05-10T19:17:59.646Z,8.98
2019-05-10T19:20:29.179Z,9.38
2019-05-10T19:22:59.005Z,7.45
2019-05-10T19:25:28.992Z,7.70
2019-05-10T19:27:58.656Z,7.97
2019-05-10T19:30:28.441Z,7.35
2019-05-10T19:33:17.369Z,6.87
2019-05-10T19:35:47.373Z,7.17
2019-05-10T19:38:20.264Z,6.12
2019-05-10T19:40:50.140Z,6.75
2019-05-10T19:43:24.033Z,7.70
2019-05-10T19:45:59.708Z,8.03
2019-05-10T19:48:35.669Z,7.50
2019-05-10T19:51:09.596Z,7.67
2019-05-10T19:53:41.513Z,9.13
2019-05-10T19:56:08.115Z,9.25
2019-05-10T19:58:38.364Z,8.05
2019-05-10T20:01:09.478Z,10.10
2019-05-10T20:03:41.084Z,9.25
2019-05-10T20:06:10.690Z,8.63
2019-05-10T20:08:40.590Z,8.65
2019-05-10T20:11:10.286Z,9.33
2019-05-10T20:13:39.939Z,9.73
2019-05-10T20:16:10.165Z,9.88
2019-05-10T20:18:39.896Z,10.43
2019-05-10T20:21:10.747Z,10.43
2019-05-10T20:24:38.575Z,8.00
2019-05-10T20:26:39.836Z,10.03
2019-05-10T20:29:11.731Z,10.60
2019-05-10T20:32:02.596Z,12.45
2019-05-10T20:34:51.186Z,11.75
2019-05-10T20:37:24.680Z,12.65
2019-05-10T20:39:54.521Z,13.22
2019-05-10T20:42:24.320Z,13.60
2019-05-10T20:45:06.850Z,13.60
2019-05-10T20:47:25.437Z,16.50
2019-05-10T20:49:57.815Z,16.17
2019-05-10T20:52:27.598Z,14.78
2019-05-10T20:55:03.515Z,18.35
2019-05-10T20:57:33.262Z,19.07
2019-05-10T21:00:02.987Z,19.55
2019-05-10T21:02:34.973Z,19.85
2019-05-10T21:05:26.992Z,19.02
2019-05-10T21:08:16.106Z,19.10
2019-05-10T21:10:34.503Z,18.60
2019-05-10T21:13:10.255Z,18.05
2019-05-10T21:15:40.003Z,17.75
2019-05-10T21:18:09.845Z,17.85
2019-05-10T21:20:39.380Z,20.80
2019-05-10T21:23:09.549Z,20.85
2019-05-10T21:25:46.587Z,16.65
2019-05-10T21:28:16.825Z,12.82
2019-05-10T21:30:49.317Z,12.10
2019-05-10T21:33:18.842Z,12.78
2019-05-10T21:35:50.209Z,12.90
2019-05-10T21:38:31.923Z,12.58
2019-05-10T21:40:51.428Z,11.97
2019-05-10T21:43:25.667Z,13.88
2019-05-10T21:45:55.257Z,12.37
2019-05-10T21:48:26.770Z,10.70
2019-05-10T21:50:56.124Z,12.05
2019-05-10T21:53:25.756Z,13.13
2019-05-10T21:55:55.555Z,12.95
2019-05-10T21:58:25.270Z,12.65
2019-05-10T22:00:55.057Z,14.40
2019-05-10T22:03:24.801Z,14.58
2019-05-10T22:05:54.304Z,12.05
2019-05-10T22:08:23.914Z,13.83
2019-05-10T22:10:53.637Z,13.05
2019-05-10T22:13:23.308Z,13.80
2019-05-10T22:15:52.915Z,14.98
2019-05-10T22:18:22.443Z,12.88
2019-05-10T22:20:52.084Z,13.13
2019-05-10T22:23:21.768Z,12.37
2019-05-10T22:25:51.415Z,15.78
2019-05-10T22:28:21.059Z,13.98
2019-05-10T22:30:50.731Z,14.98
2019-05-10T22:33:20.350Z,14.35
2019-05-10T22:35:49.911Z,13.18
2019-05-10T22:38:19.592Z,14.93
2019-05-10T22:40:49.125Z,14.78
2019-05-10T22:43:18.680Z,12.20
2019-05-10T22:45:48.159Z,15.20
2019-05-10T22:48:17.732Z,14.85
2019-05-10T22:50:47.263Z,30.37
2019-05-10T22:53:16.807Z,15.00
2019-05-10T22:55:46.312Z,14.15
2019-05-10T22:58:41.893Z,13.03
2019-05-10T23:01:11.871Z,13.10
2019-05-10T23:03:45.486Z,13.85
2019-05-10T23:06:17.752Z,13.80
2019-05-10T23:08:49.399Z,15.80
2019-05-10T23:11:19.406Z,16.20
2019-05-10T23:13:55.767Z,15.35
2019-05-10T23:16:27.838Z,14.03
2019-05-10T23:19:16.414Z,14.95
2019-05-10T23:21:46.055Z,15.08
2019-05-10T23:24:17.562Z,15.32
2019-05-10T23:26:47.358Z,14.70
2019-05-10T23:29:17.795Z,12.58
2019-05-10T23:31:47.986Z,14.80
2019-05-10T23:34:18.155Z,14.35
2019-05-10T23:36:47.747Z,14.33
2019-05-10T23:39:40.195Z,16.02
2019-05-10T23:42:00.506Z,15.55
2019-05-10T23:44:30.135Z,15.75
2019-05-10T23:47:08.776Z,14.28
2019-05-10T23:49:41.983Z,19.95
2019-05-10T23:52:11.593Z,17.20
2019-05-10T23:54:42.797Z,17.15
2019-05-10T23:57:14.496Z,19.70
2019-05-10T23:59:46.747Z,19.15
